Time;durP1;ratioP1;P1;durP2;ratioP2;P2;SDS_P1;SDS_P2;PMS_P1;PMS_P2;Temp;Humidity;BMP_temperature;BMP_pressure;BME280_temperature;BME280_humidity;BME280_pressure;Samples;Min_cycle;Max_cycle;Signal;HPM_P1;HPM_P2
2023/10/31 00:04:33;;;;;;;1.87;1.77;;;;;;;11.74;57.94;98498.47;10439722;28;20298;-66
2023/10/31 00:09:34;;;;;;;1.43;1.43;;;;;;;11.07;58.64;98512.47;10423246;28;20231;-66
2023/10/31 00:14:36;;;;;;;1.80;1.70;;;;;;;11.65;58.03;98406.00;10438385;28;20266;-67
2023/10/31 00:19:38;;;;;;;1.80;1.70;;;;;;;11.30;58.61;98470.84;10427997;28;20231;-67
2023/10/31 00:24:40;;;;;;;1.60;1.50;;;;;;;11.16;57.79;98510.31;10438933;28;20236;-67
2023/10/31 00:29:41;;;;;;;1.60;1.50;;;;;;;10.94;58.30;98538.50;10428931;28;20289;-66
2023/10/31 00:34:44;;;;;;;1.80;1.70;;;;;;;11.32;57.63;98535.75;10435175;28;20313;-66
2023/10/31 00:39:46;;;;;;;1.50;1.40;;;;;;;12.28;55.99;98423.53;10425558;28;20235;-66
2023/10/31 00:44:48;;;;;;;1.50;1.40;;;;;;;11.75;56.56;98523.41;10431083;28;20244;-67
2023/10/31 00:49:49;;;;;;;1.40;1.30;;;;;;;12.39;55.14;98480.94;10426686;28;20685;-66
2023/10/31 00:54:51;;;;;;;1.43;1.40;;;;;;;11.36;56.35;98609.25;10439557;28;20231;-66
2023/10/31 00:59:53;;;;;;;2.20;1.80;;;;;;;11.81;56.71;98467.03;10426623;28;20338;-66
2023/10/31 01:04:55;;;;;;;1.70;1.60;;;;;;;12.06;55.87;98476.00;10433155;28;20232;-66
2023/10/31 01:09:56;;;;;;;1.70;1.60;;;;;;;11.25;56.62;98575.13;10421028;28;20249;-67
2023/10/31 01:14:58;;;;;;;1.60;1.50;;;;;;;11.52;56.41;98518.66;10435733;28;20652;-66
2023/10/31 01:20:00;;;;;;;1.63;1.47;;;;;;;10.77;58.41;98548.94;10429520;28;20242;-66
2023/10/31 01:25:02;;;;;;;2.00;1.90;;;;;;;11.26;57.28;98502.59;10435953;28;20729;-66
2023/10/31 01:30:04;;;;;;;1.60;1.50;;;;;;;10.99;57.25;98538.69;10426868;28;20238;-67
2023/10/31 01:35:06;;;;;;;1.70;1.60;;;;;;;10.32;58.77;98581.81;10430521;28;20224;-67
2023/10/31 01:40:08;;;;;;;2.13;1.43;;;;;;;11.15;56.94;98491.78;10425450;28;20243;-66
2023/10/31 01:45:10;;;;;;;2.60;1.50;;;;;;;11.07;56.87;98533.88;10440888;28;20273;-67
2023/10/31 01:50:12;;;;;;;1.67;1.57;;;;;;;11.05;56.06;98578.78;10423911;28;20291;-66
2023/10/31 01:55:14;;;;;;;2.20;1.70;;;;;;;11.86;55.66;98486.97;10445958;28;20303;-66
2023/10/31 02:00:16;;;;;;;1.90;1.80;;;;;;;10.98;56.76;98586.03;10432000;28;20239;-67
2023/10/31 02:05:18;;;;;;;2.00;1.90;;;;;;;11.20;56.50;98564.25;10438712;28;20980;-66
2023/10/31 02:10:20;;;;;;;1.70;1.60;;;;;;;10.37;57.92;98658.75;10429102;28;20232;-67
2023/10/31 02:15:21;;;;;;;4.37;2.33;;;;;;;11.59;55.98;98519.38;10440234;28;20284;-67
2023/10/31 02:20:23;;;;;;;2.77;1.77;;;;;;;11.24;56.55;98527.97;10428694;28;20223;-67
2023/10/31 02:25:25;;;;;;;1.60;1.50;;;;;;;11.28;55.66;98572.00;10441375;28;20376;-67
2023/10/31 02:30:27;;;;;;;2.60;1.60;;;;;;;11.29;56.52;98506.72;10423675;28;20683;-69
2023/10/31 02:35:29;;;;;;;2.07;1.70;;;;;;;11.79;55.56;98512.00;10436516;28;20339;-68
2023/10/31 02:40:31;;;;;;;2.53;2.30;;;;;;;11.68;55.76;98507.38;10427172;28;20243;-68
2023/10/31 02:45:33;;;;;;;3.87;2.20;;;;;;;11.15;57.25;98505.19;10441275;28;20617;-68
2023/10/31 02:50:34;;;;;;;1.70;1.60;;;;;;;10.68;56.75;98612.50;10424450;28;20718;-68
2023/10/31 02:55:36;;;;;;;1.70;1.60;;;;;;;12.05;55.02;98451.06;10440996;28;20315;-68
2023/10/31 03:00:38;;;;;;;1.90;1.80;;;;;;;11.29;56.13;98538.84;10420661;28;20240;-68
2023/10/31 03:05:39;;;;;;;1.97;1.87;;;;;;;11.01;56.69;98542.75;10438333;28;20239;-68
2023/10/31 03:10:41;;;;;;;1.97;1.80;;;;;;;11.50;55.05;98560.91;10422128;28;20239;-68
2023/10/31 03:15:43;;;;;;;2.03;1.70;;;;;;;10.91;56.02;98619.25;10444879;28;20231;-68
2023/10/31 03:20:46;;;;;;;4.43;2.43;;;;;;;10.99;56.15;98608.28;10420747;28;20243;-69
2023/10/31 03:25:48;;;;;;;2.10;1.90;;;;;;;11.05;56.14;98594.00;10442931;28;20251;-68
2023/10/31 03:30:50;;;;;;;2.73;1.60;;;;;;;10.61;56.54;98601.03;10424406;28;20319;-68
2023/10/31 03:35:51;;;;;;;2.13;2.00;;;;;;;10.78;56.39;98604.91;10433218;28;20307;-68
2023/10/31 03:40:53;;;;;;;2.30;1.87;;;;;;;11.01;56.32;98576.75;10420424;28;20805;-69
2023/10/31 03:45:55;;;;;;;1.70;1.63;;;;;;;11.09;55.58;98639.94;10437146;28;20266;-68
2023/10/31 03:50:57;;;;;;;1.80;1.70;;;;;;;10.39;56.87;98707.50;10419735;28;20311;-68
2023/10/31 03:56:00;;;;;;;1.90;1.80;;;;;;;11.25;55.42;98612.63;10434967;28;20236;-68
2023/10/31 04:01:02;;;;;;;3.03;1.70;;;;;;;10.70;56.68;98659.44;10425300;28;20231;-68
2023/10/31 04:06:04;;;;;;;2.53;1.90;;;;;;;11.26;55.64;98587.50;10435064;28;20312;-67
2023/10/31 04:11:06;;;;;;;1.80;1.70;;;;;;;10.45;57.49;98661.19;10428077;28;20231;-69
2023/10/31 04:16:08;;;;;;;3.07;1.77;;;;;;;11.05;55.86;98626.13;10447328;28;20230;-69
2023/10/31 04:21:09;;;;;;;1.57;1.57;;;;;;;10.62;57.38;98608.03;10433675;28;20235;-69
2023/10/31 04:26:11;;;;;;;2.07;1.97;;;;;;;10.42;56.62;98721.25;10446168;28;20722;-69
2023/10/31 04:31:13;;;;;;;1.50;1.40;;;;;;;10.06;57.32;98775.22;10431932;28;20232;-69
2023/10/31 04:36:15;;;;;;;1.80;1.70;;;;;;;10.24;57.40;98702.38;10438902;28;23518;-69
2023/10/31 04:41:16;;;;;;;1.97;1.60;;;;;;;10.66;57.28;98639.50;10434315;28;20240;-68
2023/10/31 04:46:18;;;;;;;1.80;1.70;;;;;;;11.89;55.05;98524.06;10443668;28;20247;-69
2023/10/31 04:51:20;;;;;;;1.80;1.70;;;;;;;9.88;58.79;98696.44;10427068;28;20239;-69
2023/10/31 04:56:21;;;;;;;7.90;2.03;;;;;;;10.52;58.20;98581.75;10434928;28;20282;-67
2023/10/31 05:01:24;;;;;;;1.80;1.70;;;;;;;10.69;57.91;98572.19;10427502;28;20689;-69
2023/10/31 05:06:26;;;;;;;2.80;2.03;;;;;;;10.10;58.67;98642.78;10441118;28;20254;-69
2023/10/31 05:11:28;;;;;;;1.90;1.80;;;;;;;9.91;58.58;98720.09;10420542;28;20738;-69
2023/10/31 05:16:30;;;;;;;2.13;1.83;;;;;;;10.49;58.17;98638.34;10440709;28;20327;-69
2023/10/31 05:21:31;;;;;;;2.53;1.67;;;;;;;8.39;61.83;98783.38;10428289;28;20243;-68
2023/10/31 05:26:33;;;;;;;2.90;2.10;;;;;;;10.59;57.78;98651.25;10447563;28;20224;-68
2023/10/31 05:31:35;;;;;;;2.67;2.47;;;;;;;9.35;59.50;98753.28;10424938;28;20234;-68
2023/10/31 05:36:36;;;;;;;5.53;1.97;;;;;;;9.80;59.51;98677.09;10440696;28;20232;-68
2023/10/31 05:41:38;;;;;;;1.97;1.83;;;;;;;10.82;57.61;98578.53;10424299;28;20242;-69
2023/10/31 05:46:40;;;;;;;1.63;1.57;;;;;;;9.88;60.11;98626.97;10440813;28;20321;-68
2023/10/31 05:51:43;;;;;;;2.27;2.17;;;;;;;9.98;59.30;98680.00;10426184;28;20244;-69
2023/10/31 05:56:45;;;;;;;2.27;1.73;;;;;;;10.27;58.77;98661.84;10437995;28;20323;-68
2023/10/31 06:01:47;;;;;;;1.90;1.80;;;;;;;10.88;57.78;98623.16;10426526;28;20405;-68
2023/10/31 06:06:48;;;;;;;2.40;1.90;;;;;;;10.22;59.77;98670.50;10441035;28;20247;-68
2023/10/31 06:11:50;;;;;;;3.73;2.20;;;;;;;9.59;60.39;98729.72;10428320;28;20326;-68
2023/10/31 06:16:52;;;;;;;2.00;1.90;;;;;;;9.47;61.24;98726.81;10436925;28;20228;-69
2023/10/31 06:21:54;;;;;;;2.17;2.07;;;;;;;10.46;59.12;98663.66;10428725;28;20673;-69
2023/10/31 06:26:55;;;;;;;3.80;2.40;;;;;;;10.26;60.00;98685.09;10435964;28;20236;-69
2023/10/31 06:31:57;;;;;;;3.17;2.30;;;;;;;10.13;59.84;98739.41;10429360;28;20817;-67
2023/10/31 06:36:59;;;;;;;6.20;1.83;;;;;;;10.80;59.54;98592.13;10433044;28;20224;-67
2023/10/31 06:42:01;;;;;;;2.20;2.10;;;;;;;10.15;59.79;98740.00;10427637;28;20239;-67
2023/10/31 06:47:03;;;;;;;4.60;2.40;;;;;;;10.15;59.96;98723.16;10435864;28;20238;-67
2023/10/31 06:52:05;;;;;;;3.70;2.43;;;;;;;9.68;61.25;98733.00;10427192;28;20239;-67
2023/10/31 06:57:06;;;;;;;2.30;2.10;;;;;;;10.30;59.15;98697.00;10443471;28;20255;-67
2023/10/31 07:02:09;;;;;;;2.23;2.10;;;;;;;9.60;59.61;98795.44;10427463;28;20260;-67
2023/10/31 07:07:10;;;;;;;3.90;1.90;;;;;;;10.46;58.82;98690.41;10441426;28;20635;-67
2023/10/31 07:12:12;;;;;;;2.13;1.90;;;;;;;10.08;58.67;98818.59;10422017;28;20227;-67
2023/10/31 07:17:14;;;;;;;7.07;2.50;;;;;;;10.32;59.01;98759.13;10437713;28;20270;-67
2023/10/31 07:22:16;;;;;;;5.40;2.03;;;;;;;10.69;58.41;98719.31;10426096;28;20326;-66
2023/10/31 07:27:17;;;;;;;5.97;2.57;;;;;;;10.43;58.71;98779.09;10437506;28;20224;-66
2023/10/31 07:32:19;;;;;;;2.67;2.30;;;;;;;10.01;59.24;98820.44;10426308;28;20228;-67
2023/10/31 07:37:21;;;;;;;5.90;2.20;;;;;;;10.19;59.30;98777.03;10436867;28;20227;-66
2023/10/31 07:42:22;;;;;;;3.43;2.40;;;;;;;10.83;57.46;98744.25;10426262;28;20223;-66
2023/10/31 07:47:24;;;;;;;1.90;1.80;;;;;;;10.63;57.59;98771.03;10444928;28;20241;-66
2023/10/31 07:52:26;;;;;;;4.87;2.80;;;;;;;10.82;57.55;98753.28;10439143;28;20242;-67
2023/10/31 07:57:28;;;;;;;3.67;2.70;;;;;;;10.70;57.70;98814.63;10444248;28;20231;-66
2023/10/31 08:02:30;;;;;;;3.47;2.00;;;;;;;11.11;57.28;98777.06;10436500;28;20231;-67
2023/10/31 08:07:31;;;;;;;2.77;2.57;;;;;;;11.17;57.17;98779.72;10442318;28;20263;-66
2023/10/31 08:12:33;;;;;;;2.70;2.30;;;;;;;10.82;57.41;98851.50;10440291;28;20737;-67
2023/10/31 08:17:35;;;;;;;5.97;2.30;;;;;;;10.91;57.42;98839.53;10439875;28;20229;-66
2023/10/31 08:22:39;;;;;;;3.00;2.30;;;;;;;11.64;56.63;98774.13;10440464;28;20264;-67
2023/10/31 08:27:40;;;;;;;3.97;2.47;;;;;;;11.04;57.39;98847.53;10439683;28;20365;-66
2023/10/31 08:32:42;;;;;;;3.97;2.50;;;;;;;12.55;54.93;98756.72;10437630;28;20242;-67
2023/10/31 08:37:44;;;;;;;2.97;2.23;;;;;;;11.31;56.29;98906.34;10434775;28;20236;-66
2023/10/31 08:42:45;;;;;;;4.23;2.20;;;;;;;11.51;56.77;98817.06;10433885;28;20322;-66
2023/10/31 08:47:47;;;;;;;4.40;2.27;;;;;;;11.56;56.24;98866.28;10434601;28;20491;-65
2023/10/31 08:52:49;;;;;;;2.20;2.00;;;;;;;11.88;55.80;98822.63;10440866;28;20234;-66
2023/10/31 08:57:52;;;;;;;2.53;2.30;;;;;;;12.11;55.56;98797.94;10430858;28;20679;-67
2023/10/31 09:02:54;;;;;;;6.17;2.47;;;;;;;11.70;56.48;98837.59;10440556;28;20597;-65
2023/10/31 09:07:55;;;;;;;5.77;2.20;;;;;;;12.00;55.24;98877.22;10429955;28;20331;-64
2023/10/31 09:12:58;;;;;;;2.73;2.10;;;;;;;12.16;55.44;98855.25;10438252;28;20285;-65
2023/10/31 09:18:00;;;;;;;3.57;2.17;;;;;;;11.32;56.56;98992.88;10430882;28;21889;-64
2023/10/31 09:23:02;;;;;;;3.13;2.93;;;;;;;10.88;57.87;98958.53;10439509;28;20718;-64
2023/10/31 09:28:04;;;;;;;3.10;2.10;;;;;;;11.94;56.80;98827.13;10432125;28;20319;-65
2023/10/31 09:33:05;;;;;;;4.90;2.37;;;;;;;11.87;57.92;98812.97;10437274;28;20224;-65
2023/10/31 09:38:07;;;;;;;3.30;2.20;;;;;;;11.19;58.27;98950.88;10430085;28;20235;-65
2023/10/31 09:43:09;;;;;;;3.27;2.77;;;;;;;11.89;57.73;98849.22;10439519;28;20236;-65
2023/10/31 09:48:11;;;;;;;4.90;2.60;;;;;;;11.22;59.15;98854.03;10425644;28;20228;-65
2023/10/31 09:53:16;;;;;;;8.13;2.73;;;;;;;11.86;57.48;98891.72;10436954;28;20735;-65
2023/10/31 09:58:18;;;;;;;4.80;2.80;;;;;;;11.70;57.49;98871.63;10425856;28;20238;-65
2023/10/31 10:03:20;;;;;;;4.17;2.60;;;;;;;12.50;56.48;98794.13;10435844;28;20323;-65
2023/10/31 10:08:22;;;;;;;2.77;2.40;;;;;;;11.71;58.69;98811.59;10417270;28;20318;-65
2023/10/31 10:13:24;;;;;;;4.93;2.30;;;;;;;11.76;57.56;98871.59;10436263;28;20618;-65
2023/10/31 10:18:30;;;;;;;5.67;2.20;;;;;;;12.17;57.56;98799.75;10424565;28;20872;-65
2023/10/31 10:23:33;;;;;;;2.60;2.40;;;;;;;12.05;57.82;98822.94;10433045;28;20293;-65
2023/10/31 10:28:37;;;;;;;3.37;2.53;;;;;;;11.83;57.15;98951.97;10422784;28;20235;-65
2023/10/31 10:33:40;;;;;;;7.97;2.53;;;;;;;12.30;57.17;98849.75;10434815;28;20318;-65
2023/10/31 10:38:46;;;;;;;5.60;2.40;;;;;;;12.95;56.23;98813.69;10421014;28;20236;-65
2023/10/31 10:43:50;;;;;;;3.63;2.20;;;;;;;13.87;54.03;98810.03;10435111;28;20246;-65
2023/10/31 10:48:59;;;;;;;2.63;1.87;;;;;;;13.09;54.98;98923.44;10427358;28;20287;-65
2023/10/31 10:54:04;;;;;;;3.00;2.70;;;;;;;13.18;55.31;98880.16;10434515;28;20228;-66
2023/10/31 10:59:18;;;;;;;4.63;2.63;;;;;;;13.41;55.41;98794.34;10424594;28;20505;-67
2023/10/31 11:06:10;;;;;;;3.93;3.30;;;;;;;9.39;66.16;98756.38;10554895;27;20813;-66
2023/10/31 11:11:12;;;;;;;4.47;2.67;;;;;;;10.37;63.51;98771.06;10451630;28;20266;-65
2023/10/31 11:16:20;;;;;;;5.27;3.70;;;;;;;9.58;65.48;98814.38;10465579;28;20230;-67
2023/10/31 11:21:28;;;;;;;5.17;3.20;;;;;;;11.59;61.36;98723.00;10496537;28;20375;-68
2023/10/31 11:26:30;;;;;;;5.17;3.73;;;;;;;11.27;61.50;98773.88;10505533;28;20676;-66
2023/10/31 11:31:33;;;;;;;5.50;3.77;;;;;;;11.07;62.08;98808.81;10497092;28;20345;-67
2023/10/31 11:36:38;;;;;;;6.07;3.50;;;;;;;11.25;61.83;98794.72;10506184;28;20317;-67
2023/10/31 11:41:40;;;;;;;5.20;3.47;;;;;;;10.19;63.79;98892.84;10497949;28;20234;-66
2023/10/31 11:46:42;;;;;;;5.37;3.03;;;;;;;10.57;63.72;98785.22;10505474;28;20305;-66
2023/10/31 11:51:48;;;;;;;5.87;2.50;;;;;;;9.89;65.11;98833.56;10496515;28;20582;-66
2023/10/31 11:56:52;;;;;;;3.93;2.80;;;;;;;10.39;63.41;98839.34;10502902;28;20849;-66
2023/10/31 12:01:54;;;;;;;5.10;2.50;;;;;;;9.91;65.01;98858.25;10494761;28;20246;-67
2023/10/31 12:07:00;;;;;;;4.47;3.20;;;;;;;10.70;63.60;98819.97;10504173;28;20597;-67
2023/10/31 12:12:02;;;;;;;5.63;3.33;;;;;;;11.22;62.88;98773.72;10494664;28;20258;-66
2023/10/31 12:17:04;;;;;;;5.17;3.93;;;;;;;11.20;62.72;98805.25;10476482;28;20238;-66
2023/10/31 12:22:15;;;;;;;8.50;5.27;;;;;;;11.19;62.93;98790.22;10467597;28;20342;-66
2023/10/31 12:27:17;;;;;;;5.90;4.40;;;;;;;10.39;64.25;98916.09;10472645;28;20274;-67
2023/10/31 12:32:19;;;;;;;4.20;3.00;;;;;;;10.63;64.53;98853.13;10466256;28;20322;-67
2023/10/31 12:37:20;;;;;;;5.60;2.97;;;;;;;10.83;63.62;98805.78;10472611;28;20598;-67
2023/10/31 12:42:28;;;;;;;9.33;5.20;;;;;;;10.37;65.24;98845.94;10468024;28;20235;-67
2023/10/31 12:47:30;;;;;;;6.03;2.90;;;;;;;11.12;63.32;98784.06;10471971;28;20280;-66
2023/10/31 12:52:53;;;;;;;6.70;2.93;;;;;;;11.65;62.08;98781.13;10471433;28;20220;-66
2023/10/31 12:57:55;;;;;;;4.33;2.60;;;;;;;11.43;62.85;98820.81;10440802;28;20315;-66
2023/10/31 13:03:05;;;;;;;4.43;2.20;;;;;;;11.18;63.29;98853.66;10454619;28;20732;-66
2023/10/31 13:08:15;;;;;;;2.90;2.40;;;;;;;11.52;62.41;98827.53;10439177;28;20739;-66
2023/10/31 13:13:17;;;;;;;2.73;2.27;;;;;;;11.42;62.38;98849.47;10454403;28;20732;-67
2023/10/31 13:18:19;;;;;;;5.10;2.47;;;;;;;10.82;62.80;98886.28;10436233;28;20501;-66
2023/10/31 13:23:21;;;;;;;3.53;2.13;;;;;;;10.91;62.04;98946.59;10452785;28;20234;-67
2023/10/31 13:28:22;;;;;;;4.97;2.87;;;;;;;11.34;61.59;98857.72;10469201;28;20420;-67
2023/10/31 13:33:24;;;;;;;4.60;2.50;;;;;;;11.89;60.09;98893.97;10517472;28;20623;-66
2023/10/31 13:38:26;;;;;;;2.37;2.17;;;;;;;11.54;60.78;98892.47;10510910;28;20230;-67
2023/10/31 13:43:28;;;;;;;3.67;2.03;;;;;;;11.85;59.75;98874.81;10510938;28;20262;-66
2023/10/31 13:48:29;;;;;;;6.23;2.40;;;;;;;12.37;58.77;98913.06;10508875;28;20323;-67
2023/10/31 13:53:31;;;;;;;3.33;2.70;;;;;;;12.50;58.27;98962.31;10513865;28;20226;-66
2023/10/31 13:58:33;;;;;;;4.00;2.30;;;;;;;12.75;58.02;98905.97;10507181;28;20646;-67
2023/10/31 14:03:35;;;;;;;4.23;2.70;;;;;;;12.40;58.57;98938.66;10514096;28;20242;-67
2023/10/31 14:08:36;;;;;;;2.97;2.30;;;;;;;12.39;57.98;98950.41;10507934;28;20271;-67
2023/10/31 14:13:38;;;;;;;2.83;1.90;;;;;;;11.89;59.65;98982.44;10510872;28;20780;-67
2023/10/31 14:18:42;;;;;;;2.67;2.10;;;;;;;11.97;60.11;98964.25;10510982;28;20230;-67
2023/10/31 14:23:52;;;;;;;4.87;2.33;;;;;;;12.89;57.87;98894.09;10510556;28;20231;-66
2023/10/31 14:28:58;;;;;;;3.33;2.20;;;;;;;11.90;59.70;98994.81;10505395;28;20737;-67
2023/10/31 14:34:00;;;;;;;2.00;1.90;;;;;;;11.90;59.79;99010.91;10510554;28;20219;-67
2023/10/31 14:39:01;;;;;;;2.77;2.20;;;;;;;12.84;57.46;98928.84;10509354;28;20227;-66
2023/10/31 14:44:03;;;;;;;4.33;2.53;;;;;;;12.76;57.56;98961.31;10509815;28;20223;-67
2023/10/31 14:49:05;;;;;;;4.00;2.10;;;;;;;13.14;56.70;98972.97;10507922;28;20226;-66
2023/10/31 14:54:07;;;;;;;3.60;2.23;;;;;;;12.05;59.86;99016.81;10507613;28;20728;-67
2023/10/31 14:59:09;;;;;;;5.03;2.80;;;;;;;12.73;58.62;99004.72;10505099;28;20629;-65
2023/10/31 15:04:11;;;;;;;2.63;2.40;;;;;;;11.11;61.18;99154.59;10511875;28;20245;-66
2023/10/31 15:09:13;;;;;;;3.13;2.43;;;;;;;12.63;58.31;98990.94;10502398;28;20223;-67
2023/10/31 15:14:15;;;;;;;3.23;1.77;;;;;;;12.39;58.08;99005.94;10515685;28;20329;-68
2023/10/31 15:19:16;;;;;;;2.80;2.20;;;;;;;12.39;57.31;99052.38;10507668;28;20222;-67
2023/10/31 15:24:18;;;;;;;3.83;1.90;;;;;;;12.68;57.15;99028.69;10511528;28;20377;-67
2023/10/31 15:29:20;;;;;;;1.80;1.70;;;;;;;12.69;56.59;99062.56;10505737;28;20237;-67
2023/10/31 15:34:22;;;;;;;3.77;1.80;;;;;;;12.19;57.74;99104.22;10511853;28;20317;-65
2023/10/31 15:39:24;;;;;;;2.63;2.43;;;;;;;12.81;56.11;99084.97;10503711;28;20318;-66
2023/10/31 15:44:25;;;;;;;4.70;2.50;;;;;;;11.87;58.01;99186.41;10514520;28;20296;-65
2023/10/31 15:49:27;;;;;;;3.97;2.80;;;;;;;12.84;56.81;99055.03;10506120;28;20785;-65
2023/10/31 15:54:29;;;;;;;3.37;2.40;;;;;;;11.62;60.20;99103.97;10518046;28;20295;-65
2023/10/31 15:59:30;;;;;;;3.70;2.60;;;;;;;12.13;59.46;99047.94;10513956;28;20725;-67
2023/10/31 16:04:32;;;;;;;4.30;2.73;;;;;;;11.55;60.24;99137.13;10516812;28;20337;-67
2023/10/31 16:09:34;;;;;;;3.20;2.50;;;;;;;11.22;60.61;99176.25;10508503;28;20234;-67
2023/10/31 16:14:36;;;;;;;6.77;4.17;;;;;;;11.70;59.71;99116.31;10517137;28;20222;-65
2023/10/31 16:26:03;;;;;;;6.90;3.90;;;;;;;11.96;59.49;99085.13;10511464;28;20230;-66
2023/10/31 16:31:05;;;;;;;7.67;3.63;;;;;;;12.12;59.81;99059.72;10509168;28;20359;-67
2023/10/31 16:36:07;;;;;;;10.50;4.13;;;;;;;12.22;58.97;99100.31;10518858;28;20721;-67
2023/10/31 16:41:09;;;;;;;12.13;5.77;;;;;;;10.94;62.44;99175.56;10507390;28;20238;-67
2023/10/31 16:46:11;;;;;;;6.37;4.63;;;;;;;11.73;60.70;99109.72;10496415;28;20249;-66
2023/10/31 16:51:18;;;;;;;6.97;4.10;;;;;;;11.49;61.16;99124.53;10508715;28;20518;-66
2023/10/31 16:56:22;;;;;;;6.43;5.17;;;;;;;11.56;61.61;99102.06;10516399;28;20709;-70
2023/10/31 17:01:24;;;;;;;6.33;4.50;;;;;;;10.76;62.53;99219.75;10511187;28;20250;-69
2023/10/31 17:06:27;;;;;;;5.77;3.73;;;;;;;11.44;61.13;99114.47;10514787;28;20324;-69
2023/10/31 17:11:29;;;;;;;6.37;4.30;;;;;;;11.19;61.34;99182.00;10514068;28;20230;-70
2023/10/31 17:16:31;;;;;;;5.50;4.10;;;;;;;9.50;65.14;99246.34;10513969;28;20717;-67
2023/10/31 17:21:33;;;;;;;4.87;3.67;;;;;;;11.65;60.44;99116.09;10506304;28;20527;-65
2023/10/31 17:26:35;;;;;;;4.63;3.40;;;;;;;11.11;61.47;99179.50;10513651;28;20321;-67
2023/10/31 17:31:39;;;;;;;5.47;3.73;;;;;;;10.74;61.74;99243.19;10507554;28;20261;-64
2023/10/31 17:36:41;;;;;;;5.67;2.43;;;;;;;11.12;61.40;99181.19;10510674;28;20237;-69
2023/10/31 17:41:43;;;;;;;3.63;2.50;;;;;;;11.79;59.40;99168.69;10509222;28;20779;-68
2023/10/31 17:46:45;;;;;;;5.17;2.63;;;;;;;10.49;61.98;99310.53;10515110;28;20615;-67
2023/10/31 17:51:47;;;;;;;2.50;2.20;;;;;;;10.78;61.85;99220.41;10506823;28;20235;-67
2023/10/31 17:56:50;;;;;;;1.90;1.80;;;;;;;10.86;61.55;99190.75;10514062;28;20231;-68
2023/10/31 18:01:52;;;;;;;2.37;2.23;;;;;;;10.55;62.61;99180.53;10486292;28;20732;-66
2023/10/31 18:06:54;;;;;;;2.03;1.93;;;;;;;10.84;61.43;99202.72;10511489;28;20238;-68
2023/10/31 18:11:56;;;;;;;2.30;2.20;;;;;;;10.75;62.81;99161.91;10484738;28;20238;-66
2023/10/31 18:16:58;;;;;;;1.87;1.70;;;;;;;10.55;62.39;99227.88;10514279;28;20242;-70
2023/10/31 18:22:00;;;;;;;2.20;1.90;;;;;;;10.78;61.83;99224.91;10502204;28;20243;-69
2023/10/31 18:27:02;;;;;;;3.73;2.20;;;;;;;11.24;60.87;99146.59;10512418;28;20233;-69
2023/10/31 18:32:05;;;;;;;2.20;2.00;;;;;;;10.79;61.40;99229.25;10502678;28;20743;-69
2023/10/31 18:37:06;;;;;;;2.13;2.03;;;;;;;10.69;61.40;99230.41;10511452;28;20222;-69
2023/10/31 18:42:10;;;;;;;2.50;2.30;;;;;;;9.90;62.18;99338.44;10504445;28;20729;-68
2023/10/31 18:47:12;;;;;;;2.50;2.30;;;;;;;11.29;59.74;99212.91;10511596;28;20288;-68
2023/10/31 18:52:15;;;;;;;3.93;2.57;;;;;;;11.86;58.42;99154.44;10500577;28;20237;-70
2023/10/31 18:57:17;;;;;;;2.43;2.23;;;;;;;10.61;60.70;99307.31;10508893;28;20658;-69
2023/10/31 19:02:19;;;;;;;2.17;2.07;;;;;;;10.70;60.61;99284.75;10501892;28;20238;-67
2023/10/31 19:07:21;;;;;;;2.20;2.00;;;;;;;10.72;59.37;99372.88;10507581;28;20271;-67
2023/10/31 19:12:22;;;;;;;1.90;1.70;;;;;;;10.61;58.99;99398.31;10501744;28;20234;-69
2023/10/31 19:17:26;;;;;;;2.50;1.87;;;;;;;11.26;58.67;99270.41;10511161;28;20265;-64
2023/10/31 19:22:28;;;;;;;2.00;1.90;;;;;;;10.78;59.86;99330.13;10492869;28;20238;-68
2023/10/31 19:27:30;;;;;;;1.93;1.83;;;;;;;11.56;58.94;99221.84;10514367;28;20227;-69
2023/10/31 19:32:31;;;;;;;2.47;2.27;;;;;;;10.66;60.24;99350.38;10519067;28;20227;-69
2023/10/31 19:37:34;;;;;;;2.23;2.03;;;;;;;10.85;59.47;99375.66;10517068;28;20282;-67
2023/10/31 19:42:36;;;;;;;2.53;2.33;;;;;;;11.27;58.90;99347.03;10519461;28;20239;-67
2023/10/31 19:47:38;;;;;;;2.40;2.20;;;;;;;11.84;57.90;99285.19;10497870;28;20230;-66
2023/10/31 19:52:41;;;;;;;3.77;2.63;;;;;;;11.05;60.10;99362.38;10479969;28;20584;-67
2023/10/31 19:57:44;;;;;;;2.83;1.97;;;;;;;10.77;60.55;99375.81;10502568;28;20242;-68
2023/10/31 20:02:46;;;;;;;2.60;1.60;;;;;;;10.70;60.36;99324.91;10495566;28;20240;-68
2023/10/31 20:07:51;;;;;;;2.20;2.00;;;;;;;10.86;60.89;99280.94;10511705;28;20283;-70
2023/10/31 20:12:52;;;;;;;2.20;2.10;;;;;;;10.95;60.38;99277.09;10507378;28;20799;-70
2023/10/31 20:17:54;;;;;;;2.57;2.00;;;;;;;10.80;60.42;99312.00;10509293;28;20232;-69
2023/10/31 20:22:56;;;;;;;1.93;1.83;;;;;;;10.48;61.10;99345.53;10517662;28;20507;-70
2023/10/31 20:27:58;;;;;;;4.10;2.40;;;;;;;10.50;61.89;99287.31;10504888;28;20731;-70
2023/10/31 20:32:59;;;;;;;3.07;2.70;;;;;;;9.93;62.86;99297.97;10515978;28;20678;-70
2023/10/31 20:38:01;;;;;;;3.20;2.60;;;;;;;10.46;61.04;99272.66;10508400;28;20237;-70
2023/10/31 20:43:03;;;;;;;5.90;3.57;;;;;;;10.08;62.72;99259.66;10509284;28;20231;-70
2023/10/31 20:48:05;;;;;;;4.23;2.87;;;;;;;10.66;61.45;99212.09;10501929;28;20313;-70
2023/10/31 20:53:07;;;;;;;2.80;2.60;;;;;;;9.92;62.30;99280.31;10514657;28;20673;-69
2023/10/31 20:58:09;;;;;;;3.50;2.27;;;;;;;9.32;63.18;99367.78;10493408;28;20606;-69
2023/10/31 21:03:14;;;;;;;2.33;2.23;;;;;;;9.76;62.56;99262.63;10508048;28;20319;-68
2023/10/31 21:08:15;;;;;;;4.33;2.60;;;;;;;10.52;59.62;99358.31;10488846;28;20214;-69
2023/10/31 21:13:19;;;;;;;2.90;2.40;;;;;;;10.67;59.66;99275.25;10508044;28;20235;-68
2023/10/31 21:18:21;;;;;;;2.63;2.40;;;;;;;11.05;59.77;99232.03;10501303;28;20348;-70
2023/10/31 21:23:22;;;;;;;2.27;2.07;;;;;;;10.98;60.35;99204.38;10507865;28;20249;-70
2023/10/31 21:28:24;;;;;;;3.63;2.27;;;;;;;9.61;63.53;99293.13;10507974;28;20452;-69
2023/10/31 21:33:26;;;;;;;2.37;2.17;;;;;;;10.67;60.11;99285.97;10508821;28;20231;-69
2023/10/31 21:38:28;;;;;;;1.93;1.83;;;;;;;10.20;61.42;99303.53;10499369;28;20709;-70
2023/10/31 21:43:29;;;;;;;3.53;2.00;;;;;;;10.51;61.04;99265.72;10507717;28;20606;-71
2023/10/31 21:48:32;;;;;;;3.37;1.97;;;;;;;10.93;60.79;99214.06;10503645;28;20226;-68
2023/10/31 21:53:33;;;;;;;4.63;2.10;;;;;;;10.44;61.45;99255.97;10509111;28;20226;-69
2023/10/31 21:58:35;;;;;;;3.07;2.10;;;;;;;10.68;60.71;99255.53;10496916;28;20226;-67
2023/10/31 22:03:37;;;;;;;8.03;2.40;;;;;;;10.33;62.15;99249.34;10506784;28;20306;-66
2023/10/31 22:08:39;;;;;;;2.03;1.93;;;;;;;10.16;62.04;99318.34;10497325;28;20223;-66
2023/10/31 22:13:41;;;;;;;3.60;2.40;;;;;;;10.49;61.22;99291.00;10507701;28;20231;-66
2023/10/31 22:18:43;;;;;;;3.07;2.40;;;;;;;10.60;61.73;99246.84;10496782;28;20325;-67
2023/10/31 22:23:44;;;;;;;2.80;2.23;;;;;;;10.39;62.11;99271.78;10510119;28;20226;-67
2023/10/31 22:28:49;;;;;;;2.80;2.40;;;;;;;10.36;62.21;99259.66;10501140;28;20248;-66
2023/10/31 22:33:51;;;;;;;2.57;2.37;;;;;;;9.62;64.01;99292.94;10513183;28;20235;-66
2023/10/31 22:38:53;;;;;;;2.60;2.33;;;;;;;10.64;62.22;99214.09;10485655;28;20227;-66
2023/10/31 22:43:55;;;;;;;2.90;2.30;;;;;;;11.05;61.69;99157.06;10509750;28;20321;-67
2023/10/31 22:48:57;;;;;;;2.37;2.17;;;;;;;10.46;62.46;99216.47;10500773;28;20262;-66
2023/10/31 22:53:59;;;;;;;2.73;2.47;;;;;;;11.21;61.07;99160.38;10505604;28;20858;-67
2023/10/31 22:59:00;;;;;;;2.53;2.33;;;;;;;10.58;63.00;99190.84;10499655;28;20223;-67
2023/10/31 23:04:02;;;;;;;2.33;2.17;;;;;;;10.59;62.44;99197.00;10486987;28;20874;-67
2023/10/31 23:09:04;;;;;;;3.57;2.30;;;;;;;11.03;61.19;99193.91;10497930;28;20458;-67
2023/10/31 23:14:16;;;;;;;3.90;2.40;;;;;;;11.90;59.31;99148.44;10503156;28;20712;-67
2023/10/31 23:19:18;;;;;;;3.73;2.30;;;;;;;10.49;62.23;99291.00;10500090;28;20625;-67
2023/10/31 23:24:19;;;;;;;2.60;2.40;;;;;;;10.53;62.57;99220.03;10506601;28;20303;-67
2023/10/31 23:29:21;;;;;;;2.37;2.27;;;;;;;10.66;62.67;99203.22;10499175;28;20658;-66
2023/10/31 23:34:23;;;;;;;7.00;2.87;;;;;;;9.98;63.74;99273.34;10506398;28;20278;-66
2023/10/31 23:39:25;;;;;;;5.03;2.50;;;;;;;10.29;63.29;99230.19;10498085;28;20743;-69